createdAt,value
2023-02-22T00:00:45.694Z,989.72
2023-02-22T00:01:45.702Z,989.68
2023-02-22T00:02:45.742Z,989.64
2023-02-22T00:03:45.663Z,989.71
2023-02-22T00:04:45.679Z,989.68
2023-02-22T00:05:45.633Z,989.70
2023-02-22T00:06:45.629Z,989.69
2023-02-22T00:07:45.653Z,989.69
2023-02-22T00:08:45.617Z,989.63
2023-02-22T00:09:45.598Z,989.70
2023-02-22T00:10:45.624Z,989.63
2023-02-22T00:11:45.584Z,989.65
2023-02-22T00:12:45.566Z,989.63
2023-02-22T00:13:45.575Z,989.62
2023-02-22T00:14:45.551Z,989.54
2023-02-22T00:15:45.556Z,989.64
2023-02-22T00:16:45.521Z,989.63
2023-02-22T00:17:45.534Z,989.60
2023-02-22T00:18:45.515Z,989.60
2023-02-22T00:19:45.511Z,989.58
2023-02-22T00:20:45.516Z,989.63
2023-02-22T00:21:45.491Z,989.59
2023-02-22T00:22:46.480Z,989.66
2023-02-22T00:23:45.473Z,989.60
2023-02-22T00:24:45.511Z,989.56
2023-02-22T00:25:45.446Z,989.56
2023-02-22T00:26:45.429Z,989.54
2023-02-22T00:27:45.437Z,989.55
2023-02-22T00:28:45.418Z,989.55
2023-02-22T00:29:46.446Z,989.55
2023-02-22T00:30:45.418Z,989.58
2023-02-22T00:31:45.530Z,989.55
2023-02-22T00:32:45.438Z,989.52
2023-02-22T00:33:45.365Z,989.55
2023-02-22T00:34:46.353Z,989.51
2023-02-22T00:35:45.346Z,989.51
2023-02-22T00:36:45.358Z,989.50
2023-02-22T00:37:45.327Z,989.55
2023-02-22T00:38:45.308Z,989.59
2023-02-22T00:39:45.316Z,989.54
2023-02-22T00:40:45.327Z,989.51
2023-02-22T00:41:45.346Z,989.50
2023-02-22T00:42:45.294Z,989.50
2023-02-22T00:43:45.264Z,989.45
2023-02-22T00:44:45.273Z,989.46
2023-02-22T00:45:45.319Z,989.46
2023-02-22T00:46:45.233Z,989.49
2023-02-22T00:47:45.244Z,989.47
2023-02-22T00:48:45.210Z,989.47
2023-02-22T00:49:45.193Z,989.51
2023-02-22T00:50:45.233Z,989.49
2023-02-22T00:51:45.218Z,989.52
2023-02-22T00:52:45.199Z,989.51
2023-02-22T00:53:45.198Z,989.50
2023-02-22T00:54:45.191Z,989.53
2023-02-22T00:55:45.190Z,989.50
2023-02-22T00:56:45.139Z,989.54
2023-02-22T00:57:45.134Z,989.46
2023-02-22T00:58:45.147Z,989.54
2023-02-22T00:59:45.112Z,989.49
2023-02-22T01:00:45.117Z,989.42
2023-02-22T01:01:45.116Z,989.49
2023-02-22T01:02:45.108Z,989.46
2023-02-22T01:03:45.067Z,989.51
2023-02-22T01:04:45.066Z,989.53
2023-02-22T01:05:45.081Z,989.46
2023-02-22T01:06:45.055Z,989.46
2023-02-22T01:07:45.028Z,989.43
2023-02-22T01:08:45.022Z,989.45
2023-02-22T01:09:45.044Z,989.49
2023-02-22T01:10:45.004Z,989.47
2023-02-22T01:11:44.996Z,989.48
2023-02-22T01:12:44.981Z,989.47
2023-02-22T01:13:44.997Z,989.46
2023-02-22T01:14:44.978Z,989.42
2023-02-22T01:15:45.049Z,989.41
2023-02-22T01:16:44.979Z,989.43
2023-02-22T01:17:44.927Z,989.45
2023-02-22T01:18:44.926Z,989.46
2023-02-22T01:19:44.916Z,989.39
2023-02-22T01:20:44.928Z,989.34
2023-02-22T01:21:44.892Z,989.37
2023-02-22T01:22:44.882Z,989.38
2023-02-22T01:23:44.861Z,989.34
2023-02-22T01:24:45.860Z,989.37
2023-02-22T01:25:44.863Z,989.32
2023-02-22T01:26:44.912Z,989.36
2023-02-22T01:27:44.844Z,989.30
2023-02-22T01:28:44.835Z,989.30
2023-02-22T01:29:44.824Z,989.31
2023-02-22T01:30:44.917Z,989.28
2023-02-22T01:31:44.810Z,989.28
2023-02-22T01:32:44.787Z,989.26
2023-02-22T01:33:44.789Z,989.30
2023-02-22T01:34:44.760Z,989.22
2023-02-22T01:35:44.784Z,989.23
2023-02-22T01:36:44.736Z,989.24
2023-02-22T01:37:44.724Z,989.20
2023-02-22T01:38:44.740Z,989.17
2023-02-22T01:39:44.725Z,989.14
2023-02-22T01:40:44.697Z,989.17
2023-02-22T01:41:44.705Z,989.20
2023-02-22T01:42:44.678Z,989.16
2023-02-22T01:43:44.712Z,989.13
2023-02-22T01:44:44.652Z,989.11
2023-02-22T01:45:44.701Z,989.15
2023-02-22T01:46:44.662Z,989.16
2023-02-22T01:47:44.625Z,989.12
2023-02-22T01:48:44.635Z,989.11
2023-02-22T01:49:44.612Z,989.04
2023-02-22T01:50:44.643Z,989.11
2023-02-22T01:51:44.604Z,989.12
2023-02-22T01:52:44.570Z,989.15
2023-02-22T01:53:44.569Z,989.11
2023-02-22T01:54:44.577Z,989.10
2023-02-22T01:55:44.588Z,989.06
2023-02-22T01:56:44.549Z,989.03
2023-02-22T01:57:44.541Z,989.02
2023-02-22T01:58:44.543Z,989.03
2023-02-22T01:59:44.531Z,989.05
2023-02-22T02:00:44.505Z,989.04
2023-02-22T02:01:44.499Z,988.99
2023-02-22T02:02:44.479Z,988.99
2023-02-22T02:03:44.492Z,988.93
2023-02-22T02:04:44.472Z,988.96
2023-02-22T02:05:44.439Z,988.96
2023-02-22T02:06:44.460Z,988.91
2023-02-22T02:07:44.439Z,988.95
2023-02-22T02:08:44.416Z,988.88
2023-02-22T02:09:44.410Z,988.91
2023-02-22T02:10:44.413Z,988.88
2023-02-22T02:11:44.405Z,988.96
2023-02-22T02:12:44.431Z,988.91
2023-02-22T02:13:44.375Z,988.90
2023-02-22T02:14:44.345Z,988.87
2023-02-22T02:15:44.365Z,988.91
2023-02-22T02:16:44.389Z,988.91
2023-02-22T02:17:44.334Z,988.88
2023-02-22T02:18:44.365Z,988.88
2023-02-22T02:19:44.370Z,988.89
2023-02-22T02:20:44.311Z,988.87
2023-02-22T02:21:44.292Z,988.85
2023-02-22T02:22:44.293Z,988.82
2023-02-22T02:23:44.264Z,988.84
2023-02-22T02:24:44.311Z,988.81
2023-02-22T02:25:44.258Z,988.83
2023-02-22T02:26:44.278Z,988.80
2023-02-22T02:27:44.455Z,988.80
2023-02-22T02:28:45.205Z,988.72
2023-02-22T02:29:44.237Z,988.80
2023-02-22T02:30:44.193Z,988.80
2023-02-22T02:31:44.328Z,988.73
2023-02-22T02:32:44.292Z,988.70
2023-02-22T02:33:44.162Z,988.78
2023-02-22T02:34:44.172Z,988.70
2023-02-22T02:35:44.152Z,988.74
2023-02-22T02:36:44.178Z,988.76
2023-02-22T02:37:44.135Z,988.73
2023-02-22T02:38:44.166Z,988.69
2023-02-22T02:39:44.102Z,988.69
2023-02-22T02:40:44.132Z,988.66
2023-02-22T02:41:44.124Z,988.66
2023-02-22T02:42:44.095Z,988.61
2023-02-22T02:43:44.070Z,988.67
2023-02-22T02:44:44.064Z,988.64
2023-02-22T02:45:44.081Z,988.57
2023-02-22T02:46:44.035Z,988.64
2023-02-22T02:47:44.034Z,988.54
2023-02-22T02:48:44.039Z,988.60
2023-02-22T02:49:44.014Z,988.52
2023-02-22T02:50:44.035Z,988.62
2023-02-22T02:51:44.000Z,988.53
2023-02-22T02:52:44.019Z,988.58
2023-02-22T02:53:43.960Z,988.62
2023-02-22T02:54:43.973Z,988.60
2023-02-22T02:55:43.946Z,988.57
2023-02-22T02:56:43.962Z,988.58
2023-02-22T02:57:43.949Z,988.58
2023-02-22T02:58:43.926Z,988.55
2023-02-22T02:59:43.917Z,988.56
2023-02-22T03:00:43.912Z,988.55
2023-02-22T03:01:43.931Z,988.57
2023-02-22T03:02:43.883Z,988.54
2023-02-22T03:03:43.869Z,988.60
2023-02-22T03:04:43.863Z,988.56
2023-02-22T03:05:43.882Z,988.56
2023-02-22T03:06:43.836Z,988.52
2023-02-22T03:07:43.891Z,988.55
2023-02-22T03:08:43.875Z,988.55
2023-02-22T03:09:43.823Z,988.55
2023-02-22T03:10:43.794Z,988.51
2023-02-22T03:11:44.828Z,988.58
2023-02-22T03:12:43.819Z,988.55
2023-02-22T03:13:43.795Z,988.54
2023-02-22T03:14:43.763Z,988.47
2023-02-22T03:15:43.758Z,988.53
2023-02-22T03:16:43.834Z,988.52
2023-02-22T03:17:43.763Z,988.54
2023-02-22T03:18:43.745Z,988.50
2023-02-22T03:19:43.741Z,988.47
2023-02-22T03:20:43.703Z,988.49
2023-02-22T03:21:43.735Z,988.49
2023-02-22T03:22:43.691Z,988.47
2023-02-22T03:23:43.678Z,988.46
2023-02-22T03:24:43.696Z,988.45
2023-02-22T03:25:43.666Z,988.42
2023-02-22T03:26:43.657Z,988.50
2023-02-22T03:27:43.837Z,988.50
2023-02-22T03:28:43.632Z,988.45
2023-02-22T03:29:43.671Z,988.46
2023-02-22T03:30:43.613Z,988.47
2023-02-22T03:31:43.606Z,988.49
2023-02-22T03:32:43.584Z,988.44
2023-02-22T03:33:43.593Z,988.44
2023-02-22T03:34:43.577Z,988.43
2023-02-22T03:35:43.577Z,988.44
2023-02-22T03:36:43.566Z,988.39
2023-02-22T03:37:43.545Z,988.40
2023-02-22T03:38:43.561Z,988.41
2023-02-22T03:39:43.539Z,988.41
2023-02-22T03:40:43.552Z,988.43
2023-02-22T03:41:43.522Z,988.45
2023-02-22T03:42:43.486Z,988.42
2023-02-22T03:43:43.467Z,988.39
2023-02-22T03:44:43.465Z,988.38
2023-02-22T03:45:43.532Z,988.40
2023-02-22T03:46:43.450Z,988.33
2023-02-22T03:47:43.465Z,988.41
2023-02-22T03:48:44.425Z,988.39
2023-02-22T03:49:43.430Z,988.39
2023-02-22T03:50:43.433Z,988.36
2023-02-22T03:51:43.471Z,988.35
2023-02-22T03:52:43.395Z,988.28
2023-02-22T03:53:43.383Z,988.38
2023-02-22T03:54:52.438Z,988.30
2023-02-22T03:55:43.352Z,988.28
2023-02-22T03:56:43.339Z,988.27
2023-02-22T03:57:43.343Z,988.32
2023-02-22T03:58:43.325Z,988.24
2023-02-22T03:59:43.309Z,988.27
2023-02-22T04:00:43.298Z,988.28
2023-02-22T04:01:43.289Z,988.26
2023-02-22T04:02:43.342Z,988.28
2023-02-22T04:03:43.251Z,988.27
2023-02-22T04:04:43.298Z,988.28
2023-02-22T04:05:43.272Z,988.30
2023-02-22T04:06:43.246Z,988.28
2023-02-22T04:07:43.262Z,988.35
2023-02-22T04:08:43.219Z,988.41
2023-02-22T04:09:43.198Z,988.33
2023-02-22T04:10:43.194Z,988.31
2023-02-22T04:11:43.186Z,988.38
2023-02-22T04:12:43.177Z,988.37
2023-02-22T04:13:43.192Z,988.33
2023-02-22T04:14:43.158Z,988.35
2023-02-22T04:15:43.197Z,988.30
2023-02-22T04:16:43.163Z,988.31
2023-02-22T04:17:43.128Z,988.31
2023-02-22T04:18:43.130Z,988.30
2023-02-22T04:19:43.121Z,988.31
2023-02-22T04:20:43.118Z,988.31
2023-02-22T04:21:43.089Z,988.24
2023-02-22T04:22:43.082Z,988.28
2023-02-22T04:23:43.073Z,988.13
2023-02-22T04:24:43.076Z,988.30
2023-02-22T04:25:43.074Z,988.18
2023-02-22T04:26:43.050Z,988.25
2023-02-22T04:27:43.026Z,988.25
2023-02-22T04:28:43.022Z,988.28
2023-02-22T04:29:43.010Z,988.28
2023-02-22T04:30:43.035Z,988.30
2023-02-22T04:31:43.077Z,988.22
2023-02-22T04:32:42.973Z,988.26
2023-02-22T04:33:42.984Z,988.20
2023-02-22T04:34:42.961Z,988.27
2023-02-22T04:35:42.942Z,988.27
2023-02-22T04:36:42.958Z,988.25
2023-02-22T04:37:42.924Z,988.27
2023-02-22T04:38:42.918Z,988.24
2023-02-22T04:39:42.944Z,988.29
2023-02-22T04:40:42.911Z,988.29
2023-02-22T04:41:42.912Z,988.24
2023-02-22T04:42:42.883Z,988.24
2023-02-22T04:43:42.868Z,988.20
2023-02-22T04:44:42.870Z,988.21
2023-02-22T04:45:42.852Z,988.22
2023-02-22T04:46:42.901Z,988.23
2023-02-22T04:47:42.827Z,988.22
2023-02-22T04:48:42.816Z,988.28
2023-02-22T04:49:42.813Z,988.24
2023-02-22T04:50:42.814Z,988.28
2023-02-22T04:51:42.812Z,988.17
2023-02-22T04:52:42.815Z,988.22
2023-02-22T04:53:42.778Z,988.22
2023-02-22T04:54:42.760Z,988.24
2023-02-22T04:55:42.753Z,988.22
2023-02-22T04:56:42.786Z,988.24
2023-02-22T04:57:42.734Z,988.22
2023-02-22T04:58:42.765Z,988.22
2023-02-22T04:59:42.706Z,988.19
2023-02-22T05:00:42.698Z,988.19
2023-02-22T05:01:42.693Z,988.14
2023-02-22T05:02:42.741Z,988.16
2023-02-22T05:03:42.670Z,988.17
2023-02-22T05:04:42.782Z,988.04
2023-02-22T05:05:42.663Z,988.03
2023-02-22T05:06:42.635Z,988.14
2023-02-22T05:07:42.657Z,988.13
2023-02-22T05:08:42.647Z,988.11
2023-02-22T05:09:42.612Z,988.14
2023-02-22T05:10:42.593Z,988.11
2023-02-22T05:11:42.595Z,988.19
2023-02-22T05:12:42.657Z,988.16
2023-02-22T05:13:42.568Z,988.06
2023-02-22T05:14:42.561Z,988.14
2023-02-22T05:15:42.594Z,988.09
2023-02-22T05:16:42.548Z,988.10
2023-02-22T05:17:42.525Z,988.06
2023-02-22T05:18:42.535Z,988.05
2023-02-22T05:19:42.514Z,988.10
2023-02-22T05:20:42.505Z,988.06
2023-02-22T05:21:42.481Z,988.09
2023-02-22T05:22:43.499Z,988.08
2023-02-22T05:23:43.486Z,988.09
2023-02-22T05:24:42.466Z,988.07
2023-02-22T05:25:42.453Z,988.04
2023-02-22T05:26:42.450Z,988.04
2023-02-22T05:27:42.429Z,988.10
2023-02-22T05:28:42.429Z,988.05
2023-02-22T05:29:43.420Z,988.06
2023-02-22T05:30:42.467Z,988.04
2023-02-22T05:31:42.583Z,988.08
2023-02-22T05:32:42.386Z,988.07
2023-02-22T05:33:42.379Z,988.05
2023-02-22T05:34:42.385Z,988.03
2023-02-22T05:35:42.359Z,988.05
2023-02-22T05:36:42.341Z,988.05
2023-02-22T05:37:42.332Z,987.92
2023-02-22T05:38:43.411Z,988.03
2023-02-22T05:39:42.326Z,988.06
2023-02-22T05:40:42.296Z,987.94
2023-02-22T05:41:42.299Z,988.02
2023-02-22T05:42:42.292Z,987.93
2023-02-22T05:43:42.297Z,987.90
2023-02-22T05:44:42.277Z,987.91
2023-02-22T05:45:42.264Z,987.92
2023-02-22T05:46:42.279Z,987.91
2023-02-22T05:47:42.254Z,987.92
2023-02-22T05:48:42.241Z,987.93
2023-02-22T05:49:42.222Z,987.90
2023-02-22T05:50:42.218Z,987.87
2023-02-22T05:51:42.200Z,987.91
2023-02-22T05:52:42.204Z,987.86
2023-02-22T05:53:42.199Z,987.83
2023-02-22T05:54:42.181Z,987.86
2023-02-22T05:55:42.166Z,987.84
2023-02-22T05:56:42.148Z,987.89
2023-02-22T05:57:42.180Z,987.84
2023-02-22T05:58:42.122Z,987.83
2023-02-22T05:59:42.116Z,987.84
2023-02-22T06:00:42.095Z,987.87
2023-02-22T06:01:42.142Z,987.76
2023-02-22T06:02:42.105Z,987.77
2023-02-22T06:03:42.088Z,987.86
2023-02-22T06:04:42.068Z,987.81
2023-02-22T06:05:42.143Z,987.77
2023-02-22T06:06:42.044Z,987.82
2023-02-22T06:07:42.032Z,987.82
2023-02-22T06:08:42.026Z,987.83
2023-02-22T06:09:42.011Z,987.82
2023-02-22T06:10:42.038Z,987.84
2023-02-22T06:11:42.015Z,987.85
2023-02-22T06:12:42.008Z,987.85
2023-02-22T06:13:41.970Z,987.87
2023-02-22T06:14:41.960Z,987.83
2023-02-22T06:15:42.002Z,987.87
2023-02-22T06:16:41.947Z,987.88
2023-02-22T06:17:41.951Z,987.87
2023-02-22T06:18:41.911Z,987.85
2023-02-22T06:19:41.929Z,987.90
2023-02-22T06:20:41.905Z,987.88
2023-02-22T06:21:41.906Z,987.87
2023-02-22T06:22:41.867Z,987.87
2023-02-22T06:23:42.917Z,987.86
2023-02-22T06:24:41.861Z,987.84
2023-02-22T06:25:41.859Z,987.89
2023-02-22T06:26:41.861Z,987.90
2023-02-22T06:27:41.826Z,987.92
2023-02-22T06:28:41.820Z,987.91
2023-02-22T06:29:41.816Z,987.90
2023-02-22T06:30:41.887Z,987.88
2023-02-22T06:31:41.999Z,987.93
2023-02-22T06:32:41.801Z,987.91
2023-02-22T06:33:41.769Z,987.93
2023-02-22T06:34:41.764Z,987.97
2023-02-22T06:35:41.753Z,987.91
2023-02-22T06:36:41.751Z,987.96
2023-02-22T06:37:41.743Z,988.00
2023-02-22T06:38:41.717Z,987.96
2023-02-22T06:39:41.722Z,988.04
2023-02-22T06:40:41.696Z,987.92
2023-02-22T06:41:41.693Z,987.95
2023-02-22T06:42:41.677Z,988.01
2023-02-22T06:43:41.694Z,987.96
2023-02-22T06:44:41.670Z,988.00
2023-02-22T06:45:41.696Z,987.97
2023-02-22T06:46:41.653Z,987.93
2023-02-22T06:47:41.634Z,987.95
2023-02-22T06:48:41.654Z,987.97
2023-02-22T06:49:41.610Z,987.98
2023-02-22T06:50:41.600Z,987.95
2023-02-22T06:51:41.595Z,988.03
2023-02-22T06:52:41.582Z,987.95
2023-02-22T06:53:41.595Z,988.05
2023-02-22T06:54:41.570Z,987.99
2023-02-22T06:55:41.556Z,987.98
2023-02-22T06:56:41.550Z,987.99
2023-02-22T06:57:41.523Z,988.02
2023-02-22T06:58:41.516Z,988.01
2023-02-22T06:59:41.521Z,988.01
2023-02-22T07:00:41.582Z,988.01
2023-02-22T07:01:41.499Z,987.98
2023-02-22T07:02:41.477Z,988.08
2023-02-22T07:03:41.524Z,987.99
2023-02-22T07:04:43.464Z,988.07
2023-02-22T07:05:42.453Z,988.01
2023-02-22T07:06:41.443Z,988.06
2023-02-22T07:07:41.433Z,988.02
2023-02-22T07:08:41.419Z,987.99
2023-02-22T07:09:41.408Z,988.04
2023-02-22T07:10:41.427Z,988.05
2023-02-22T07:11:41.404Z,988.07
2023-02-22T07:12:41.388Z,988.11
2023-02-22T07:13:41.372Z,988.10
2023-02-22T07:14:41.385Z,988.11
2023-02-22T07:15:41.365Z,988.13
2023-02-22T07:16:41.397Z,988.13
2023-02-22T07:17:41.336Z,988.11
2023-02-22T07:18:41.337Z,988.19
2023-02-22T07:19:41.311Z,988.17
2023-02-22T07:20:41.306Z,988.15
2023-02-22T07:21:41.286Z,988.16
2023-02-22T07:22:41.282Z,988.08
2023-02-22T07:23:41.295Z,988.15
2023-02-22T07:24:41.272Z,988.17
2023-02-22T07:25:41.252Z,988.14
2023-02-22T07:26:41.249Z,988.14
2023-02-22T07:27:41.241Z,988.08
2023-02-22T07:28:41.246Z,988.17
2023-02-22T07:29:41.218Z,988.19
2023-02-22T07:30:41.226Z,988.16
2023-02-22T07:31:41.207Z,988.17
2023-02-22T07:32:41.294Z,988.22
2023-02-22T07:33:41.190Z,988.16
2023-02-22T07:34:41.159Z,988.18
2023-02-22T07:35:41.184Z,988.19
2023-02-22T07:36:41.144Z,988.21
2023-02-22T07:37:41.130Z,988.27
2023-02-22T07:38:41.128Z,988.21
2023-02-22T07:39:41.129Z,988.27
2023-02-22T07:40:41.109Z,988.27
2023-02-22T07:41:41.094Z,988.20
2023-02-22T07:42:41.076Z,988.24
2023-02-22T07:43:41.088Z,988.29
2023-02-22T07:44:41.070Z,988.23
2023-02-22T07:45:41.068Z,988.23
2023-02-22T07:46:41.092Z,988.22
2023-02-22T07:47:41.036Z,988.20
2023-02-22T07:48:41.014Z,988.23
2023-02-22T07:49:41.007Z,988.26
2023-02-22T07:50:41.020Z,988.26
2023-02-22T07:51:40.990Z,988.23
2023-02-22T07:52:40.980Z,988.21
2023-02-22T07:53:40.989Z,988.24
2023-02-22T07:54:40.981Z,988.20
2023-02-22T07:55:40.957Z,988.14
2023-02-22T07:56:40.941Z,988.24
2023-02-22T07:57:40.946Z,988.16
2023-02-22T07:58:40.930Z,988.20
2023-02-22T07:59:40.939Z,988.12
2023-02-22T08:00:40.906Z,988.21
2023-02-22T08:01:40.895Z,988.21
2023-02-22T08:02:40.929Z,988.19
2023-02-22T08:03:40.925Z,988.17
2023-02-22T08:04:40.890Z,988.22
2023-02-22T08:05:40.852Z,988.13
2023-02-22T08:06:40.850Z,988.15
2023-02-22T08:07:40.837Z,988.12
2023-02-22T08:08:40.823Z,988.12
2023-02-22T08:09:40.879Z,988.13
2023-02-22T08:10:40.805Z,988.14
2023-02-22T08:11:41.794Z,988.11
2023-02-22T08:12:40.777Z,988.07
2023-02-22T08:13:40.781Z,988.12
2023-02-22T08:14:40.800Z,988.11
2023-02-22T08:15:40.775Z,988.11
2023-02-22T08:16:40.766Z,988.09
2023-02-22T08:17:40.746Z,988.12
2023-02-22T08:18:40.741Z,988.10
2023-02-22T08:19:40.713Z,988.13
2023-02-22T08:20:40.703Z,988.08
2023-02-22T08:21:40.706Z,987.99
2023-02-22T08:22:40.694Z,988.07
2023-02-22T08:23:40.718Z,988.02
2023-02-22T08:24:40.696Z,988.05
2023-02-22T08:25:40.651Z,988.01
2023-02-22T08:26:40.673Z,988.03
2023-02-22T08:27:40.635Z,987.99
2023-02-22T08:28:40.626Z,988.03
2023-02-22T08:29:40.658Z,988.00
2023-02-22T08:30:40.868Z,987.98
2023-02-22T08:31:40.645Z,988.01
2023-02-22T08:32:40.658Z,987.97
2023-02-22T08:33:40.571Z,988.01
2023-02-22T08:34:40.570Z,987.99
2023-02-22T08:35:40.564Z,988.02
2023-02-22T08:36:40.547Z,987.96
2023-02-22T08:37:40.552Z,987.98
2023-02-22T08:38:40.538Z,987.93
2023-02-22T08:39:40.520Z,987.95
2023-02-22T08:40:40.509Z,987.91
2023-02-22T08:41:40.528Z,987.92
2023-02-22T08:42:40.507Z,987.90
2023-02-22T08:43:40.518Z,987.90
2023-02-22T08:44:40.468Z,987.90
2023-02-22T08:45:40.485Z,987.85
2023-02-22T08:46:40.475Z,987.91
2023-02-22T08:47:40.462Z,987.89
2023-02-22T08:48:40.446Z,987.83
2023-02-22T08:49:40.423Z,987.88
2023-02-22T08:50:40.407Z,987.86
2023-02-22T08:51:40.392Z,987.89
2023-02-22T08:52:40.386Z,987.84
2023-02-22T08:53:40.386Z,987.89
2023-02-22T08:54:40.372Z,987.85
2023-02-22T08:55:40.402Z,987.82
2023-02-22T08:56:40.372Z,987.84
2023-02-22T08:57:40.342Z,987.85
2023-02-22T08:58:40.329Z,987.86
2023-02-22T08:59:40.326Z,987.84
2023-02-22T09:00:40.306Z,987.88
2023-02-22T09:01:40.412Z,987.81
2023-02-22T09:02:40.280Z,987.81
2023-02-22T09:03:40.337Z,987.82
2023-02-22T09:04:40.261Z,987.85
2023-02-22T09:05:40.274Z,987.79
2023-02-22T09:06:40.245Z,987.76
2023-02-22T09:07:40.288Z,987.78
2023-02-22T09:08:40.264Z,987.79
2023-02-22T09:09:40.222Z,987.80
2023-02-22T09:10:40.201Z,987.82
2023-02-22T09:11:40.189Z,987.84
2023-02-22T09:12:40.177Z,987.83
2023-02-22T09:13:40.196Z,987.84
2023-02-22T09:14:40.143Z,987.80
2023-02-22T09:15:40.168Z,987.86
2023-02-22T09:16:40.246Z,987.84
2023-02-22T09:17:40.136Z,987.84
2023-02-22T09:18:44.299Z,987.84
2023-02-22T09:19:41.126Z,987.75
2023-02-22T09:20:40.105Z,987.79
2023-02-22T09:21:40.149Z,987.75
2023-02-22T09:22:40.075Z,987.81
2023-02-22T09:23:40.062Z,987.77
2023-02-22T09:24:40.073Z,987.72
2023-02-22T09:25:40.046Z,987.71
2023-02-22T09:26:40.054Z,987.74
2023-02-22T09:27:40.031Z,987.71
2023-02-22T09:28:40.061Z,987.67
2023-02-22T09:29:40.045Z,987.64
2023-02-22T09:30:40.094Z,987.67
2023-02-22T09:31:40.102Z,987.62
2023-02-22T09:32:40.145Z,987.66
2023-02-22T09:33:39.989Z,987.65
2023-02-22T09:34:39.972Z,987.71
2023-02-22T09:35:39.947Z,987.65
2023-02-22T09:36:39.934Z,987.57
2023-02-22T09:37:39.979Z,987.57
2023-02-22T09:38:39.951Z,987.59
2023-02-22T09:39:39.944Z,987.59
2023-02-22T09:40:39.895Z,987.61
2023-02-22T09:41:39.906Z,987.51
2023-02-22T09:42:39.893Z,987.55
2023-02-22T09:43:39.896Z,987.47
2023-02-22T09:44:39.859Z,987.51
2023-02-22T09:45:39.845Z,987.45
2023-02-22T09:46:39.836Z,987.38
2023-02-22T09:47:39.856Z,987.43
2023-02-22T09:48:39.837Z,987.44
2023-02-22T09:49:39.827Z,987.41
2023-02-22T09:50:39.801Z,987.42
2023-02-22T09:51:39.796Z,987.41
2023-02-22T09:52:39.806Z,987.47
2023-02-22T09:53:39.759Z,987.40
2023-02-22T09:54:39.756Z,987.40
2023-02-22T09:56:11.666Z,987.39
2023-02-22T09:56:39.758Z,987.38
2023-02-22T09:57:39.756Z,987.32
2023-02-22T09:58:41.778Z,987.37
2023-02-22T09:59:40.726Z,987.31
2023-02-22T10:00:39.732Z,987.31
2023-02-22T10:01:39.708Z,987.31
2023-02-22T10:02:39.713Z,987.30
2023-02-22T10:03:39.741Z,987.34
2023-02-22T10:04:39.664Z,987.37
2023-02-22T10:05:39.759Z,987.35
2023-02-22T10:06:39.677Z,987.29
2023-02-22T10:07:39.659Z,987.37
2023-02-22T10:08:39.659Z,987.37
2023-02-22T10:09:39.632Z,987.31
2023-02-22T10:10:39.621Z,987.34
2023-02-22T10:11:39.611Z,987.30
2023-02-22T10:12:40.603Z,987.34
2023-02-22T10:13:39.588Z,987.32
2023-02-22T10:14:39.599Z,987.30
2023-02-22T10:15:39.587Z,987.29
2023-02-22T10:16:39.603Z,987.29
2023-02-22T10:17:39.539Z,987.32
2023-02-22T10:18:39.546Z,987.34
2023-02-22T10:19:39.559Z,987.29
2023-02-22T10:20:39.567Z,987.32
2023-02-22T10:21:39.530Z,987.28
2023-02-22T10:22:39.553Z,987.30
2023-02-22T10:23:39.530Z,987.27
2023-02-22T10:24:39.512Z,987.26
2023-02-22T10:25:39.548Z,987.32
2023-02-22T10:26:39.467Z,987.32
2023-02-22T10:27:39.482Z,987.24
2023-02-22T10:28:39.444Z,987.24
2023-02-22T10:29:39.471Z,987.21
2023-02-22T10:30:39.494Z,987.25
2023-02-22T10:31:39.526Z,987.20
2023-02-22T10:32:39.428Z,987.16
2023-02-22T10:33:39.414Z,987.21
2023-02-22T10:34:39.391Z,987.18
2023-02-22T10:35:39.380Z,987.19
2023-02-22T10:36:39.393Z,987.23
2023-02-22T10:37:39.415Z,987.21
2023-02-22T10:38:39.343Z,987.22
2023-02-22T10:39:39.357Z,987.19
2023-02-22T10:40:39.347Z,987.25
2023-02-22T10:41:39.324Z,987.24
2023-02-22T10:42:39.382Z,987.22
2023-02-22T10:43:39.322Z,987.21
2023-02-22T10:44:39.309Z,987.23
2023-02-22T10:45:39.353Z,987.23
2023-02-22T10:46:39.292Z,987.16
2023-02-22T10:47:39.253Z,987.21
2023-02-22T10:48:39.276Z,987.16
2023-02-22T10:49:39.222Z,987.20
2023-02-22T10:50:39.235Z,987.21
2023-02-22T10:51:39.276Z,987.18
2023-02-22T10:52:39.199Z,987.11
2023-02-22T10:53:39.210Z,987.16
2023-02-22T10:54:39.198Z,987.10
2023-02-22T10:55:39.224Z,987.10
2023-02-22T10:56:39.178Z,987.11
2023-02-22T10:57:39.182Z,987.14
2023-02-22T10:58:39.149Z,987.06
2023-02-22T10:59:39.136Z,987.07
2023-02-22T11:00:39.182Z,987.04
2023-02-22T11:01:39.161Z,987.02
2023-02-22T11:02:39.104Z,987.01
2023-02-22T11:03:39.105Z,987.04
2023-02-22T11:04:39.092Z,987.05
2023-02-22T11:05:39.072Z,987.07
2023-02-22T11:06:39.057Z,987.06
2023-02-22T11:07:39.037Z,986.97
2023-02-22T11:08:39.045Z,986.93
2023-02-22T11:09:39.022Z,986.92
2023-02-22T11:10:39.088Z,986.88
2023-02-22T11:11:39.014Z,986.88
2023-02-22T11:12:39.010Z,986.87
2023-02-22T11:13:39.021Z,986.83
2023-02-22T11:14:39.003Z,986.85
2023-02-22T11:15:38.983Z,986.91
2023-02-22T11:16:39.000Z,986.87
2023-02-22T11:17:38.959Z,986.83
2023-02-22T11:18:38.976Z,986.83
2023-02-22T11:19:38.956Z,986.82
2023-02-22T11:20:38.927Z,986.81
2023-02-22T11:21:38.989Z,986.78
2023-02-22T11:22:38.922Z,986.75
2023-02-22T11:23:38.930Z,986.69
2023-02-22T11:24:48.679Z,986.71
2023-02-22T11:25:39.874Z,986.75
2023-02-22T11:26:38.850Z,986.74
2023-02-22T11:27:38.883Z,986.70
2023-02-22T11:28:38.894Z,986.70
2023-02-22T11:29:38.855Z,986.67
2023-02-22T11:30:38.940Z,986.63
2023-02-22T11:31:38.929Z,986.60
2023-02-22T11:32:38.871Z,986.63
2023-02-22T11:33:38.820Z,986.67
2023-02-22T11:34:38.807Z,986.59
2023-02-22T11:35:38.784Z,986.57
2023-02-22T11:36:38.761Z,986.56
2023-02-22T11:37:38.787Z,986.59
2023-02-22T11:38:38.731Z,986.53
2023-02-22T11:39:38.836Z,986.51
2023-02-22T11:40:38.752Z,986.51
2023-02-22T11:41:38.744Z,986.51
2023-02-22T11:42:38.709Z,986.52
2023-02-22T11:43:38.706Z,986.48
2023-02-22T11:44:38.690Z,986.46
2023-02-22T11:45:44.153Z,986.43
2023-02-22T11:46:40.683Z,986.46
2023-02-22T11:47:38.648Z,986.46
2023-02-22T11:48:38.649Z,986.40
2023-02-22T11:49:38.663Z,986.41
2023-02-22T11:50:50.585Z,986.40
2023-02-22T11:51:41.650Z,986.41
2023-02-22T11:52:38.616Z,986.32
2023-02-22T11:53:38.607Z,986.33
2023-02-22T11:54:38.578Z,986.26
2023-02-22T11:55:43.284Z,986.34
2023-02-22T11:56:40.069Z,986.33
2023-02-22T11:57:38.563Z,986.28
2023-02-22T11:58:38.538Z,986.31
2023-02-22T11:59:38.577Z,986.31
2023-02-22T12:00:38.531Z,986.32
2023-02-22T12:01:38.561Z,986.23
2023-02-22T12:02:41.682Z,986.30
2023-02-22T12:03:39.526Z,986.20
2023-02-22T12:04:39.888Z,986.31
2023-02-22T12:05:38.462Z,986.27
2023-02-22T12:06:38.463Z,986.35
2023-02-22T12:07:38.469Z,986.27
2023-02-22T12:08:38.469Z,986.20
2023-02-22T12:09:38.446Z,986.20
2023-02-22T12:10:38.423Z,986.17
2023-02-22T12:11:38.401Z,986.20
2023-02-22T12:12:38.418Z,986.16
2023-02-22T12:13:38.384Z,986.16
2023-02-22T12:14:38.415Z,986.17
2023-02-22T12:15:38.437Z,986.19
2023-02-22T12:17:10.655Z,986.12
2023-02-22T12:17:58.070Z,986.10
2023-02-22T12:18:39.337Z,986.12
2023-02-22T12:19:39.378Z,986.11
2023-02-22T12:20:38.330Z,986.07
2023-02-22T12:21:38.331Z,986.06
2023-02-22T12:22:38.299Z,986.04
2023-02-22T12:23:38.290Z,986.08
2023-02-22T12:24:38.322Z,986.09
2023-02-22T12:25:38.264Z,986.03
2023-02-22T12:26:38.254Z,986.07
2023-02-22T12:27:38.261Z,986.05
2023-02-22T12:28:38.308Z,986.01